createdAt,value
2023-05-13T00:01:07.325Z,56.75
2023-05-13T00:03:34.626Z,56.12
2023-05-13T00:06:01.640Z,57.04
2023-05-13T00:08:29.156Z,57.65
2023-05-13T00:10:55.983Z,58.36
2023-05-13T00:13:23.090Z,59.04
2023-05-13T00:15:50.576Z,59.95
2023-05-13T00:18:17.647Z,60.71
2023-05-13T00:20:44.652Z,61.36
2023-05-13T00:23:17.022Z,62.15
2023-05-13T00:25:49.253Z,62.73
2023-05-13T00:28:17.034Z,63.88
2023-05-13T00:30:45.117Z,64.05
2023-05-13T00:33:12.371Z,64.24
2023-05-13T00:35:40.101Z,64.41
2023-05-13T00:38:07.294Z,64.44
2023-05-13T00:40:38.952Z,64.92
2023-05-13T00:43:05.854Z,65.11
2023-05-13T00:45:33.216Z,64.97
2023-05-13T00:48:00.216Z,65.19
2023-05-13T00:50:27.162Z,65.32
2023-05-13T00:52:53.957Z,65.35
2023-05-13T00:55:26.210Z,64.78
2023-05-13T00:57:52.959Z,64.33
2023-05-13T01:00:25.322Z,64.01
2023-05-13T01:03:17.333Z,64.13
2023-05-13T01:06:01.334Z,64.02
2023-05-13T01:09:08.112Z,63.95
2023-05-13T01:11:39.516Z,64.00
2023-05-13T01:14:12.450Z,63.90
2023-05-13T01:16:45.818Z,63.76
2023-05-13T01:19:18.281Z,63.88
2023-05-13T01:21:52.227Z,64.51
2023-05-13T01:26:46.447Z,65.49
2023-05-13T01:29:13.414Z,65.86
2023-05-13T01:31:40.671Z,65.44
2023-05-13T01:34:09.936Z,65.50
2023-05-13T01:36:39.105Z,66.54
2023-05-13T01:39:07.205Z,66.78
2023-05-13T01:41:34.388Z,67.11
2023-05-13T01:44:01.708Z,67.65
2023-05-13T01:46:29.045Z,67.82
2023-05-13T01:48:55.890Z,68.17
2023-05-13T01:51:22.983Z,68.25
2023-05-13T01:53:50.263Z,68.06
2023-05-13T01:56:23.148Z,68.22
2023-05-13T01:58:50.563Z,68.60
2023-05-13T02:01:17.465Z,68.52
2023-05-13T02:03:49.578Z,68.31
2023-05-13T02:06:16.622Z,67.66
2023-05-13T02:08:48.656Z,67.25
2023-05-13T02:11:16.363Z,67.19
2023-05-13T02:13:43.218Z,66.55
2023-05-13T02:16:16.513Z,66.38
2023-05-13T02:18:43.619Z,66.36
2023-05-13T02:21:13.473Z,65.63
2023-05-13T02:23:46.721Z,65.76
2023-05-13T02:26:13.460Z,66.00
2023-05-13T02:28:40.290Z,67.16
2023-05-13T02:31:12.570Z,67.81
2023-05-13T02:33:40.729Z,67.76
2023-05-13T02:36:09.236Z,67.18
2023-05-13T02:38:36.511Z,67.72
2023-05-13T02:41:05.049Z,67.91
2023-05-13T02:43:32.452Z,67.49
2023-05-13T02:46:08.407Z,67.12
2023-05-13T02:48:36.772Z,67.35
2023-05-13T02:51:03.587Z,66.75
2023-05-13T02:53:31.030Z,66.13
2023-05-13T02:56:01.419Z,66.15
2023-05-13T02:58:28.533Z,66.28
2023-05-13T03:00:55.551Z,66.36
2023-05-13T03:03:24.117Z,66.36
2023-05-13T03:05:51.219Z,66.29
2023-05-13T03:08:23.852Z,66.03
2023-05-13T03:10:51.278Z,66.11
2023-05-13T03:13:18.284Z,66.09
2023-05-13T03:15:45.252Z,66.05
2023-05-13T03:18:20.045Z,65.93
2023-05-13T03:20:47.006Z,65.82
2023-05-13T03:23:13.806Z,66.22
2023-05-13T03:25:42.233Z,67.20
2023-05-13T03:28:09.804Z,66.93
2023-05-13T03:30:38.947Z,66.60
2023-05-13T03:33:09.340Z,66.31
2023-05-13T03:35:36.687Z,66.12
2023-05-13T03:38:04.108Z,65.87
2023-05-13T03:40:32.626Z,65.14
2023-05-13T03:43:00.154Z,64.95
2023-05-13T03:45:28.270Z,64.52
2023-05-13T03:47:57.298Z,64.12
2023-05-13T03:50:24.797Z,63.68
2023-05-13T03:52:52.661Z,63.32
2023-05-13T03:55:19.771Z,62.66
2023-05-13T03:57:47.767Z,62.42
2023-05-13T04:00:15.986Z,61.74
2023-05-13T04:02:43.770Z,61.28
2023-05-13T04:05:13.539Z,60.80
2023-05-13T04:07:40.841Z,60.37
2023-05-13T04:10:15.401Z,59.97
2023-05-13T04:12:43.060Z,59.64
2023-05-13T04:15:10.224Z,59.28
2023-05-13T04:17:37.063Z,59.05
2023-05-13T04:20:05.055Z,59.23
2023-05-13T04:22:33.914Z,59.00
2023-05-13T04:25:00.897Z,58.86
2023-05-13T04:27:27.875Z,58.80
2023-05-13T04:30:05.384Z,58.33
2023-05-13T04:32:33.926Z,58.05
2023-05-13T04:35:01.422Z,57.31
2023-05-13T04:37:30.484Z,56.56
2023-05-13T04:40:00.381Z,56.21
2023-05-13T04:42:27.587Z,55.46
2023-05-13T04:44:54.638Z,55.20
2023-05-13T04:47:22.163Z,54.56
2023-05-13T04:49:48.992Z,53.95
2023-05-13T04:52:21.220Z,53.66
2023-05-13T04:54:48.972Z,52.80
2023-05-13T04:57:16.823Z,52.63
2023-05-13T04:59:43.738Z,52.49
2023-05-13T05:02:10.852Z,52.04
2023-05-13T05:04:38.416Z,52.08
2023-05-13T05:07:11.479Z,51.64
2023-05-13T05:09:38.501Z,51.78
2023-05-13T05:12:06.183Z,50.97
2023-05-13T05:14:34.826Z,49.11
2023-05-13T05:17:02.060Z,48.63
2023-05-13T05:19:29.888Z,47.84
2023-05-13T05:21:57.914Z,46.71
2023-05-13T05:24:25.523Z,46.21
2023-05-13T05:26:53.120Z,45.52
2023-05-13T05:29:20.323Z,45.16
2023-05-13T05:31:47.288Z,44.70
2023-05-13T05:34:14.458Z,44.50
2023-05-13T05:36:47.931Z,44.44
2023-05-13T05:39:15.870Z,44.13
2023-05-13T05:41:43.868Z,44.42
2023-05-13T05:44:12.911Z,43.68
2023-05-13T05:46:39.954Z,43.12
2023-05-13T05:49:07.739Z,43.18
2023-05-13T05:51:35.057Z,42.73
2023-05-13T05:54:03.478Z,42.64
2023-05-13T05:56:30.834Z,42.22
2023-05-13T05:58:57.738Z,42.30
2023-05-13T06:01:27.190Z,41.91
2023-05-13T06:03:55.121Z,41.76
2023-05-13T06:06:22.099Z,41.48
2023-05-13T06:08:48.981Z,41.33
2023-05-13T06:11:16.041Z,41.84
2023-05-13T06:13:43.775Z,41.54
2023-05-13T06:16:10.890Z,41.27
2023-05-13T06:18:38.404Z,41.30
2023-05-13T06:21:05.570Z,41.01
2023-05-13T06:23:32.523Z,40.68
2023-05-13T06:25:59.489Z,40.09
2023-05-13T06:28:32.147Z,39.56
2023-05-13T06:30:59.048Z,39.11
2023-05-13T06:33:26.246Z,38.12
2023-05-13T06:35:53.197Z,37.70
2023-05-13T06:38:21.932Z,37.78
2023-05-13T06:40:50.811Z,36.97
2023-05-13T06:43:19.075Z,37.37
2023-05-13T06:45:48.752Z,36.86
2023-05-13T06:48:16.280Z,36.25
2023-05-13T06:50:49.277Z,35.76
2023-05-13T06:53:21.498Z,36.48
2023-05-13T06:55:48.390Z,36.34
2023-05-13T06:58:15.661Z,36.02
2023-05-13T07:00:42.724Z,36.41
2023-05-13T07:03:09.628Z,35.77
2023-05-13T07:05:37.004Z,35.83
2023-05-13T07:08:08.061Z,35.85
2023-05-13T07:10:35.005Z,35.99
2023-05-13T07:13:02.380Z,35.98
2023-05-13T07:15:29.345Z,36.63
2023-05-13T07:17:56.265Z,35.48
2023-05-13T07:20:23.417Z,35.00
2023-05-13T07:22:50.654Z,34.86
2023-05-13T07:25:18.110Z,35.26
2023-05-13T07:27:45.016Z,35.10
2023-05-13T07:30:12.267Z,34.78
2023-05-13T07:32:39.413Z,34.87
2023-05-13T07:35:06.911Z,35.58
2023-05-13T07:37:33.897Z,35.15
2023-05-13T07:40:00.800Z,35.19
2023-05-13T07:42:29.565Z,34.62
2023-05-13T07:44:56.440Z,33.99
2023-05-13T07:47:23.889Z,32.87
2023-05-13T07:49:51.509Z,33.45
2023-05-13T07:52:18.489Z,33.29
2023-05-13T07:54:45.547Z,33.05
2023-05-13T07:57:13.600Z,32.42
2023-05-13T07:59:41.313Z,31.79
2023-05-13T08:02:09.104Z,31.87
2023-05-13T08:04:36.185Z,32.42
2023-05-13T08:07:04.360Z,31.97
2023-05-13T08:09:31.808Z,31.04
2023-05-13T08:11:58.630Z,30.99
2023-05-13T08:14:25.770Z,30.79
2023-05-13T08:16:52.803Z,29.59
2023-05-13T08:19:19.916Z,29.29
2023-05-13T08:21:46.908Z,29.38
2023-05-13T08:24:13.797Z,28.96
2023-05-13T08:26:40.721Z,27.97
2023-05-13T08:29:08.100Z,27.46
2023-05-13T08:31:34.993Z,28.09
2023-05-13T08:34:02.412Z,27.97
2023-05-13T08:36:29.731Z,28.75
2023-05-13T08:38:56.504Z,28.08
2023-05-13T08:41:23.406Z,27.73
2023-05-13T08:43:50.381Z,27.72
2023-05-13T08:46:17.232Z,27.08
2023-05-13T08:48:44.447Z,26.89
2023-05-13T08:51:11.321Z,26.55
2023-05-13T08:53:38.613Z,27.31
2023-05-13T08:56:07.607Z,27.61
2023-05-13T08:58:34.677Z,26.54
2023-05-13T09:01:02.910Z,25.53
2023-05-13T09:03:30.774Z,24.86
2023-05-13T09:06:01.155Z,25.11
2023-05-13T09:08:28.484Z,24.89
2023-05-13T09:10:55.380Z,24.27
2023-05-13T09:13:22.898Z,22.79
2023-05-13T09:15:50.606Z,22.70
2023-05-13T09:18:19.130Z,22.36
2023-05-13T09:20:47.826Z,21.35
2023-05-13T09:23:15.489Z,21.59
2023-05-13T09:25:42.546Z,21.68
2023-05-13T09:28:09.434Z,21.61
2023-05-13T09:30:39.687Z,21.88
2023-05-13T09:33:19.138Z,22.27
2023-05-13T09:35:52.113Z,21.48
2023-05-13T09:38:25.240Z,21.36
2023-05-13T09:40:55.765Z,20.75
2023-05-13T09:43:27.644Z,20.40
2023-05-13T09:46:03.149Z,20.51
2023-05-13T09:48:32.209Z,19.05
2023-05-13T09:50:59.118Z,18.72
2023-05-13T09:53:27.051Z,18.67
2023-05-13T09:55:55.707Z,18.52
2023-05-13T09:58:24.018Z,17.67
2023-05-13T10:00:51.138Z,17.34
2023-05-13T10:03:18.859Z,17.52
2023-05-13T10:05:45.963Z,16.96
2023-05-13T10:08:14.449Z,16.71
2023-05-13T10:10:41.866Z,16.98
2023-05-13T10:13:10.599Z,16.33
2023-05-13T10:15:48.017Z,15.95
2023-05-13T10:18:16.092Z,15.76
2023-05-13T10:20:43.779Z,15.66
2023-05-13T10:23:16.357Z,15.62
2023-05-13T10:25:44.257Z,15.38
2023-05-13T10:28:11.351Z,15.46
2023-05-13T10:30:38.450Z,15.35
2023-05-13T10:33:05.741Z,14.89
2023-05-13T10:35:38.546Z,14.80
2023-05-13T10:38:10.591Z,14.61
2023-05-13T10:40:47.648Z,14.55
2023-05-13T10:43:19.801Z,14.63
2023-05-13T10:45:50.911Z,14.15
2023-05-13T10:48:18.285Z,13.72
2023-05-13T10:50:54.823Z,14.31
2023-05-13T10:53:27.387Z,14.37
2023-05-13T10:55:59.089Z,14.31
2023-05-13T10:58:39.374Z,14.25
2023-05-13T11:01:14.195Z,13.93
2023-05-13T11:03:41.617Z,13.89
2023-05-13T11:06:18.893Z,13.77
2023-05-13T11:08:54.247Z,14.08
2023-05-13T11:11:28.924Z,13.75
2023-05-13T11:14:22.826Z,13.79
2023-05-13T11:17:04.591Z,13.40
2023-05-13T11:19:32.181Z,13.15
2023-05-13T11:22:10.117Z,13.40
2023-05-13T11:24:55.145Z,13.38
2023-05-13T11:27:48.154Z,13.81
2023-05-13T11:30:28.271Z,13.42
2023-05-13T11:33:02.425Z,13.22
2023-05-13T11:35:32.187Z,13.20
2023-05-13T11:38:02.428Z,13.52
2023-05-13T11:40:31.140Z,13.16
2023-05-13T11:43:04.497Z,13.40
2023-05-13T11:45:33.380Z,13.16
2023-05-13T11:48:17.172Z,13.53
2023-05-13T11:50:44.395Z,13.06
2023-05-13T11:53:11.749Z,12.60
2023-05-13T11:55:39.972Z,12.31
2023-05-13T11:58:07.251Z,12.45
2023-05-13T12:00:34.511Z,12.61
2023-05-13T12:03:02.807Z,12.70
2023-05-13T12:05:30.746Z,12.40
2023-05-13T12:07:57.762Z,12.28
2023-05-13T12:10:25.494Z,12.14
2023-05-13T12:12:53.555Z,11.97
2023-05-13T12:15:21.428Z,12.33
2023-05-13T12:17:48.750Z,13.14
2023-05-13T12:20:16.584Z,12.61
2023-05-13T12:22:46.222Z,12.77
2023-05-13T12:25:35.295Z,12.88
2023-05-13T12:28:09.675Z,12.89
2023-05-13T12:30:37.705Z,13.08
2023-05-13T12:33:06.308Z,12.96
2023-05-13T12:35:33.839Z,13.41
2023-05-13T12:38:04.772Z,13.34
2023-05-13T12:40:31.960Z,13.08
2023-05-13T12:42:59.288Z,13.29
2023-05-13T12:45:28.955Z,13.26
2023-05-13T12:47:56.438Z,13.17
2023-05-13T12:50:23.923Z,13.12
2023-05-13T12:52:51.979Z,13.01
2023-05-13T12:55:18.956Z,12.63
2023-05-13T12:58:03.138Z,13.30
2023-05-13T13:00:30.707Z,13.61
2023-05-13T13:02:57.747Z,13.50
2023-05-13T13:05:26.227Z,13.28
2023-05-13T13:07:53.310Z,13.26
2023-05-13T13:10:20.867Z,13.13
2023-05-13T13:12:49.672Z,13.36
2023-05-13T13:15:16.716Z,13.39
2023-05-13T13:17:43.817Z,13.56
2023-05-13T13:20:12.076Z,12.96
2023-05-13T13:22:44.068Z,12.68
2023-05-13T13:25:11.182Z,12.59
2023-05-13T13:27:38.327Z,12.77
2023-05-13T13:30:07.914Z,13.14
2023-05-13T13:32:35.706Z,13.39
2023-05-13T13:35:05.119Z,13.74
2023-05-13T13:37:32.008Z,13.54
2023-05-13T13:39:59.107Z,13.47
2023-05-13T13:42:40.299Z,13.65
2023-05-13T13:45:11.224Z,14.21
2023-05-13T13:47:39.254Z,14.21
2023-05-13T13:50:06.457Z,14.25
2023-05-13T13:52:33.834Z,14.34
2023-05-13T13:55:06.592Z,14.72
2023-05-13T13:57:33.638Z,14.66
2023-05-13T14:00:00.588Z,14.71
2023-05-13T14:02:27.674Z,14.41
2023-05-13T14:04:55.167Z,14.26
2023-05-13T14:07:27.734Z,14.40
2023-05-13T14:09:54.834Z,14.30
2023-05-13T14:12:22.010Z,14.46
2023-05-13T14:14:48.981Z,14.69
2023-05-13T14:17:15.878Z,14.92
2023-05-13T14:19:42.655Z,14.93
2023-05-13T14:22:09.451Z,15.47
2023-05-13T14:24:36.384Z,15.77
2023-05-13T14:27:03.555Z,16.31
2023-05-13T14:29:30.691Z,16.23
2023-05-13T14:31:59.299Z,16.34
2023-05-13T14:34:26.337Z,16.55
2023-05-13T14:36:53.205Z,16.50
2023-05-13T14:39:20.013Z,16.83
2023-05-13T14:41:46.992Z,16.70
2023-05-13T14:44:14.068Z,16.68
2023-05-13T14:46:41.254Z,16.79
2023-05-13T14:49:08.373Z,16.93
2023-05-13T14:51:35.870Z,17.41
2023-05-13T14:54:02.979Z,17.51
2023-05-13T14:56:30.156Z,17.57
2023-05-13T14:58:57.174Z,17.68
2023-05-13T15:01:24.289Z,17.94
2023-05-13T15:03:51.375Z,17.80
2023-05-13T15:06:18.237Z,17.97
2023-05-13T15:08:45.201Z,18.27
2023-05-13T15:11:12.743Z,18.18
2023-05-13T15:13:39.697Z,17.96
2023-05-13T15:16:06.736Z,18.21
2023-05-13T15:18:42.265Z,18.10
2023-05-13T15:21:09.494Z,18.13
2023-05-13T15:23:36.962Z,18.31
2023-05-13T15:26:04.145Z,18.43
2023-05-13T15:28:30.996Z,18.68
2023-05-13T15:30:58.247Z,18.89
2023-05-13T15:33:26.370Z,18.68
2023-05-13T15:35:53.222Z,19.01
2023-05-13T15:38:20.672Z,18.76
2023-05-13T15:40:47.663Z,19.08
2023-05-13T15:43:14.721Z,19.49
2023-05-13T15:45:41.858Z,19.57
2023-05-13T15:48:08.977Z,19.29
2023-05-13T15:50:36.092Z,19.40
2023-05-13T15:53:03.652Z,19.62
2023-05-13T15:55:31.565Z,19.75
2023-05-13T15:57:58.425Z,19.98
2023-05-13T16:00:25.525Z,20.23
2023-05-13T16:02:52.725Z,20.20
2023-05-13T16:05:19.834Z,20.56
2023-05-13T16:07:46.678Z,20.71
2023-05-13T16:10:14.915Z,20.70
2023-05-13T16:12:42.640Z,20.76
2023-05-13T16:15:11.336Z,21.02
2023-05-13T16:17:38.649Z,21.29
2023-05-13T16:20:07.452Z,21.40
2023-05-13T16:22:37.430Z,21.40
2023-05-13T16:25:05.667Z,21.52
2023-05-13T16:27:33.501Z,21.67
2023-05-13T16:30:01.570Z,21.85
2023-05-13T16:32:29.020Z,22.00
2023-05-13T16:34:55.976Z,22.26
2023-05-13T16:37:22.847Z,22.57
2023-05-13T16:39:55.078Z,22.79
2023-05-13T16:42:23.061Z,22.94
2023-05-13T16:44:49.845Z,23.06
2023-05-13T16:47:16.734Z,23.17
2023-05-13T16:49:44.799Z,23.38
2023-05-13T16:52:11.800Z,23.51
2023-05-13T16:54:38.712Z,23.50
2023-05-13T16:57:05.823Z,23.77
2023-05-13T16:59:37.768Z,24.12
2023-05-13T17:02:05.995Z,24.20
2023-05-13T17:04:33.470Z,24.70
2023-05-13T17:07:05.816Z,25.09
2023-05-13T17:09:33.014Z,25.98
2023-05-13T17:11:59.886Z,26.54
2023-05-13T17:14:26.725Z,26.80
2023-05-13T17:16:53.801Z,27.18
2023-05-13T17:19:20.713Z,27.62
2023-05-13T17:21:47.631Z,28.09
2023-05-13T17:24:19.827Z,28.44
2023-05-13T17:26:46.648Z,28.51
2023-05-13T17:29:13.584Z,28.66
2023-05-13T17:31:45.640Z,29.04
2023-05-13T17:34:13.709Z,29.37
2023-05-13T17:36:40.865Z,29.57
2023-05-13T17:39:07.802Z,29.81
2023-05-13T17:41:34.875Z,30.08
2023-05-13T17:44:01.952Z,30.18
2023-05-13T17:46:29.293Z,30.47
2023-05-13T17:48:56.450Z,30.63
2023-05-13T17:51:23.953Z,30.89
2023-05-13T17:53:50.836Z,30.95
2023-05-13T17:56:17.861Z,31.14
2023-05-13T17:58:44.665Z,31.28
2023-05-13T18:01:16.898Z,32.53
2023-05-13T18:03:45.048Z,33.67
2023-05-13T18:06:12.101Z,33.78
2023-05-13T18:08:39.412Z,33.52
2023-05-13T18:11:06.234Z,33.33
2023-05-13T18:13:35.354Z,33.38
2023-05-13T18:16:04.119Z,33.39
2023-05-13T18:18:31.733Z,33.54
2023-05-13T18:20:59.409Z,33.64
2023-05-13T18:23:26.258Z,33.76
2023-05-13T18:25:56.070Z,34.01
2023-05-13T18:28:23.748Z,34.37
2023-05-13T18:30:55.944Z,33.87
2023-05-13T18:33:22.963Z,33.82
2023-05-13T18:35:51.008Z,34.09
2023-05-13T18:38:17.901Z,34.31
2023-05-13T18:40:45.121Z,34.69
2023-05-13T18:43:17.151Z,34.73
2023-05-13T18:45:44.148Z,35.07
2023-05-13T18:48:11.155Z,35.18
2023-05-13T18:50:38.342Z,34.96
2023-05-13T18:53:05.640Z,35.04
2023-05-13T18:55:32.542Z,35.34
2023-05-13T18:58:04.483Z,35.44
2023-05-13T19:00:31.815Z,35.93
2023-05-13T19:03:03.822Z,36.67
2023-05-13T19:05:30.894Z,37.61
2023-05-13T19:07:59.913Z,35.45
2023-05-13T19:10:26.703Z,35.27
2023-05-13T19:12:53.602Z,34.41
2023-05-13T19:15:21.057Z,34.51
2023-05-13T19:17:48.225Z,36.89
2023-05-13T19:20:15.736Z,36.35
2023-05-13T19:22:42.938Z,35.45
2023-05-13T19:25:10.435Z,36.51
2023-05-13T19:27:37.435Z,37.00
2023-05-13T19:30:04.945Z,37.35
2023-05-13T19:32:32.643Z,37.46
2023-05-13T19:34:59.956Z,37.46
2023-05-13T19:37:26.844Z,37.80
2023-05-13T19:39:53.983Z,38.77
2023-05-13T19:42:21.230Z,37.26
2023-05-13T19:44:48.312Z,37.90
2023-05-13T19:47:15.070Z,36.88
2023-05-13T19:49:42.475Z,37.90
2023-05-13T19:52:09.374Z,38.03
2023-05-13T19:54:36.968Z,36.93
2023-05-13T19:57:04.272Z,37.09
2023-05-13T19:59:31.210Z,36.87
2023-05-13T20:01:58.025Z,37.02
2023-05-13T20:04:25.069Z,37.64
2023-05-13T20:06:52.486Z,37.61
2023-05-13T20:09:19.280Z,37.78
2023-05-13T20:11:51.881Z,37.76
2023-05-13T20:14:22.416Z,37.23
2023-05-13T20:16:54.364Z,37.92
2023-05-13T20:19:26.412Z,37.25
2023-05-13T20:21:53.334Z,36.67
2023-05-13T20:24:25.384Z,37.24
2023-05-13T20:26:52.201Z,37.75
2023-05-13T20:29:19.043Z,38.04
2023-05-13T20:31:46.028Z,37.69
2023-05-13T20:34:12.937Z,38.60
2023-05-13T20:36:39.932Z,38.50
2023-05-13T20:39:07.249Z,38.03
2023-05-13T20:41:34.413Z,38.88
2023-05-13T20:44:01.319Z,37.83
2023-05-13T20:46:28.797Z,39.11
2023-05-13T20:48:55.742Z,38.97
2023-05-13T20:51:22.758Z,39.32
2023-05-13T20:53:50.104Z,39.66
2023-05-13T20:56:16.966Z,39.75
2023-05-13T20:58:43.762Z,39.08
2023-05-13T21:01:10.752Z,39.64
2023-05-13T21:03:37.696Z,38.40
2023-05-13T21:06:05.242Z,39.78
2023-05-13T21:08:36.248Z,40.03
2023-05-13T21:11:03.925Z,39.90
2023-05-13T21:13:31.700Z,38.23
2023-05-13T21:16:04.279Z,38.09
2023-05-13T21:18:32.252Z,38.01
2023-05-13T21:20:59.249Z,38.31
2023-05-13T21:23:31.506Z,38.93
2023-05-13T21:25:58.309Z,38.61
2023-05-13T21:28:25.132Z,38.23
2023-05-13T21:30:52.134Z,38.29
2023-05-13T21:33:18.972Z,38.27
2023-05-13T21:35:45.813Z,38.14
2023-05-13T21:38:12.889Z,38.22
2023-05-13T21:40:39.963Z,38.21
2023-05-13T21:43:07.025Z,38.40
2023-05-13T21:45:39.528Z,38.53
2023-05-13T21:48:06.552Z,38.57
2023-05-13T21:50:34.286Z,38.73
2023-05-13T21:53:06.290Z,39.06
2023-05-13T21:55:34.398Z,39.50
2023-05-13T21:58:02.479Z,39.74
2023-05-13T22:00:30.993Z,39.69
2023-05-13T22:02:59.658Z,40.22
2023-05-13T22:05:27.722Z,40.40
2023-05-13T22:07:54.857Z,39.65
2023-05-13T22:10:22.170Z,39.53
2023-05-13T22:12:49.698Z,39.65
2023-05-13T22:15:16.853Z,40.18
2023-05-13T22:17:43.755Z,40.35
2023-05-13T22:20:11.547Z,40.63
2023-05-13T22:22:38.505Z,40.22
2023-05-13T22:25:05.902Z,40.17
2023-05-13T22:27:32.909Z,40.22
2023-05-13T22:29:59.833Z,40.37
2023-05-13T22:32:26.688Z,40.53
2023-05-13T22:34:53.744Z,40.68
2023-05-13T22:37:20.531Z,41.09
2023-05-13T22:39:47.408Z,41.02
2023-05-13T22:42:14.275Z,41.67
2023-05-13T22:44:41.327Z,41.46
2023-05-13T22:47:08.581Z,41.87
2023-05-13T22:49:40.656Z,42.22
2023-05-13T22:52:12.454Z,42.45
2023-05-13T22:54:39.434Z,42.86
2023-05-13T22:57:06.390Z,43.38
2023-05-13T22:59:38.487Z,44.29
2023-05-13T23:02:05.468Z,45.82
2023-05-13T23:04:32.610Z,45.11
2023-05-13T23:06:59.725Z,45.50
2023-05-13T23:09:26.572Z,46.75
2023-05-13T23:11:53.978Z,46.98
2023-05-13T23:14:20.875Z,47.25
2023-05-13T23:16:47.790Z,47.76
2023-05-13T23:19:14.826Z,48.06
2023-05-13T23:21:41.788Z,48.32
2023-05-13T23:24:08.998Z,48.92
2023-05-13T23:26:35.964Z,49.07
2023-05-13T23:29:03.563Z,49.20
2023-05-13T23:31:30.965Z,49.41
2023-05-13T23:33:57.886Z,49.59
2023-05-13T23:36:24.777Z,49.84
2023-05-13T23:38:51.640Z,49.93
2023-05-13T23:41:18.874Z,50.02
2023-05-13T23:43:45.725Z,50.57
2023-05-13T23:46:12.716Z,51.93
2023-05-13T23:48:39.980Z,52.07
2023-05-13T23:51:06.821Z,52.48
2023-05-13T23:53:34.282Z,53.06
2023-05-13T23:56:01.446Z,52.93
2023-05-13T23:58:28.732Z,53.00
